Time;durP1;ratioP1;P1;durP2;ratioP2;P2;SDS_P1;SDS_P2;PMS_P1;PMS_P2;Temp;Humidity;BMP_temperature;BMP_pressure;BME280_temperature;BME280_humidity;BME280_pressure;Samples;Min_cycle;Max_cycle;Signal;HPM_P1;HPM_P2
2022/05/04 00:01:18;;;;;;;;;;;;;;;10.26;72.15;97238.58;109658;1251;60549;-67
2022/05/04 00:03:47;;;;;;;;;;;;;;;10.26;72.09;97239.98;109672;1251;71569;-66
2022/05/04 00:06:17;;;;;;;;;;;;;;;10.26;72.26;97237.23;109763;1250;67752;-67
2022/05/04 00:08:47;;;;;;;;;;;;;;;10.23;73.11;97243.64;109787;1250;69366;-68
2022/05/04 00:11:18;;;;;;;;;;;;;;;10.18;73.27;97243.65;109650;1251;60566;-67
2022/05/04 00:13:49;;;;;;;;;;;;;;;10.15;73.76;97244.55;109637;1253;60505;-66
2022/05/04 00:16:20;;;;;;;;;;;;;;;10.11;75.14;97242.83;109826;1251;72294;-67
2022/05/04 00:18:49;;;;;;;;;;;;;;;10.08;74.92;97245.61;109699;1250;68574;-67
2022/05/04 00:21:23;;;;;;;;;;;;;;;10.09;74.41;97240.30;109792;1251;69232;-67
2022/05/04 00:23:53;;;;;;;;;;;;;;;10.06;75.25;97245.94;109868;1251;60571;-67
2022/05/04 00:26:22;;;;;;;;;;;;;;;10.03;75.69;97249.87;109747;1251;60510;-67
2022/05/04 00:28:52;;;;;;;;;;;;;;;9.99;75.67;97253.27;109678;1251;72166;-68
2022/05/04 00:31:22;;;;;;;;;;;;;;;9.96;76.18;97259.72;109866;1251;67774;-67
2022/05/04 00:33:52;;;;;;;;;;;;;;;9.92;76.19;97266.25;109776;1251;69429;-67
2022/05/04 00:36:22;;;;;;;;;;;;;;;9.89;76.73;97276.42;109608;1250;60621;-68
2022/05/04 00:38:51;;;;;;;;;;;;;;;9.86;75.42;97277.71;109769;1251;60549;-67
2022/05/04 00:41:23;;;;;;;;;;;;;;;9.82;76.04;97282.70;109777;1251;71556;-67
2022/05/04 00:43:55;;;;;;;;;;;;;;;9.76;75.42;97279.81;109846;1250;67963;-68
2022/05/04 00:46:25;;;;;;;;;;;;;;;9.71;75.03;97279.81;109705;1250;68907;-69
2022/05/04 00:48:56;;;;;;;;;;;;;;;9.65;74.82;97279.04;109626;1251;60565;-67
2022/05/04 00:51:27;;;;;;;;;;;;;;;9.59;76.06;97282.76;109743;1251;60510;-69
2022/05/04 00:53:57;;;;;;;;;;;;;;;9.53;75.43;97278.84;109803;1251;71432;-70
2022/05/04 00:56:27;;;;;;;;;;;;;;;9.47;74.78;97278.56;109738;1251;68599;-67
2022/05/04 00:58:57;;;;;;;;;;;;;;;9.42;74.51;97278.92;109486;1253;69302;-67
2022/05/04 01:01:31;;;;;;;;;;;;;;;9.38;76.36;97282.86;109690;1251;60445;-67
2022/05/04 01:04:00;;;;;;;;;;;;;;;9.32;75.19;97285.14;109620;1251;60584;-67
2022/05/04 01:06:30;;;;;;;;;;;;;;;9.29;77.11;97284.50;109787;1251;71425;-67
2022/05/04 01:09:01;;;;;;;;;;;;;;;9.25;78.89;97279.38;109636;1251;67853;-67
2022/05/04 01:11:31;;;;;;;;;;;;;;;9.20;79.09;97277.48;109593;1251;69263;-67
2022/05/04 01:14:03;;;;;;;;;;;;;;;9.14;78.55;97276.34;109788;1251;60578;-65
2022/05/04 01:16:34;;;;;;;;;;;;;;;9.08;78.46;97279.17;109845;1250;60515;-66
2022/05/04 01:19:05;;;;;;;;;;;;;;;9.04;78.97;97279.64;109813;1250;71912;-66
2022/05/04 01:21:35;;;;;;;;;;;;;;;9.00;79.10;97286.15;109631;1251;66698;-68
2022/05/04 01:24:05;;;;;;;;;;;;;;;8.97;78.53;97288.14;109652;1251;68835;-67
2022/05/04 01:26:36;;;;;;;;;;;;;;;8.92;77.71;97286.89;109823;1251;60506;-67
2022/05/04 01:29:06;;;;;;;;;;;;;;;8.89;77.63;97289.36;109848;1250;60495;-66
2022/05/04 01:31:37;;;;;;;;;;;;;;;8.85;77.75;97288.90;109772;1250;71681;-67
2022/05/04 01:34:08;;;;;;;;;;;;;;;8.82;77.82;97288.41;109725;1250;68415;-68
2022/05/04 01:36:37;;;;;;;;;;;;;;;8.79;79.82;97287.42;109908;1251;68059;-67
2022/05/04 01:39:07;;;;;;;;;;;;;;;8.73;80.43;97287.48;109705;1251;60605;-67
2022/05/04 01:44:24;;;;;;;;;;;;;;;8.57;80.22;97287.00;109639;1251;72291;-67
2022/05/04 01:46:55;;;;;;;;;;;;;;;8.48;80.23;97290.89;109685;1251;67886;-66
2022/05/04 01:49:26;;;;;;;;;;;;;;;8.41;81.15;97289.74;109808;1251;68718;-65
2022/05/04 01:51:55;;;;;;;;;;;;;;;8.36;80.20;97292.15;109854;1251;60567;-66
2022/05/04 01:54:27;;;;;;;;;;;;;;;8.31;81.09;97292.28;109832;1251;60563;-66
2022/05/04 01:56:57;;;;;;;;;;;;;;;8.28;82.24;97295.64;109843;1249;71399;-66
2022/05/04 01:59:27;;;;;;;;;;;;;;;8.25;82.12;97294.25;109861;1251;67832;-66
2022/05/04 02:01:57;;;;;;;;;;;;;;;8.24;81.52;97295.73;109910;1250;69321;-68
2022/05/04 02:04:27;;;;;;;;;;;;;;;8.23;82.47;97294.42;109811;1251;60518;-66
2022/05/04 02:06:57;;;;;;;;;;;;;;;8.21;83.09;97295.21;109822;1251;60495;-67
2022/05/04 02:09:27;;;;;;;;;;;;;;;8.18;83.60;97294.02;109676;1251;72206;-67
2022/05/04 02:11:57;;;;;;;;;;;;;;;8.17;83.65;97295.98;109900;1251;67694;-67
2022/05/04 02:14:26;;;;;;;;;;;;;;;8.16;83.47;97292.56;109870;1250;69506;-66
2022/05/04 02:16:56;;;;;;;;;;;;;;;8.17;83.38;97292.00;109860;1251;60541;-69
2022/05/04 02:19:26;;;;;;;;;;;;;;;8.18;83.52;97290.36;109663;1251;60649;-68
2022/05/04 02:21:56;;;;;;;;;;;;;;;8.21;84.01;97296.14;109596;1251;72336;-65
2022/05/04 02:24:25;;;;;;;;;;;;;;;8.24;84.58;97297.66;109800;1249;67794;-66
2022/05/04 02:26:55;;;;;;;;;;;;;;;8.26;84.10;97296.98;109681;1250;69388;-67
2022/05/04 02:29:25;;;;;;;;;;;;;;;8.30;84.27;97298.67;109704;1250;60576;-67
2022/05/04 02:31:58;;;;;;;;;;;;;;;8.32;82.95;97297.27;109878;1251;60489;-67
2022/05/04 02:34:28;;;;;;;;;;;;;;;8.36;81.99;97298.09;109794;1250;71669;-67
2022/05/04 02:39:54;;;;;;;;;;;;;;;8.40;82.15;97307.34;109547;1251;68481;-67
2022/05/04 02:42:23;;;;;;;;;;;;;;;8.41;82.56;97304.85;109361;1254;60532;-65
2022/05/04 02:44:53;;;;;;;;;;;;;;;8.41;83.42;97308.02;109588;1253;60500;-68
2022/05/04 02:47:23;;;;;;;;;;;;;;;8.39;83.91;97309.52;109650;1250;71627;-67
2022/05/04 02:49:54;;;;;;;;;;;;;;;8.38;83.14;97317.27;109769;1250;67821;-67
2022/05/04 02:52:25;;;;;;;;;;;;;;;8.34;78.37;97317.47;109570;1251;69050;-67
2022/05/04 02:54:54;;;;;;;;;;;;;;;8.29;77.06;97318.66;109759;1250;60510;-68
2022/05/04 02:57:25;;;;;;;;;;;;;;;8.23;78.73;97321.33;109644;1251;60517;-66
2022/05/04 02:59:54;;;;;;;;;;;;;;;8.17;81.32;97329.16;109592;1251;72356;-66
2022/05/04 03:02:29;;;;;;;;;;;;;;;8.12;82.31;97333.26;109805;1250;68750;-66
2022/05/04 03:05:02;;;;;;;;;;;;;;;8.09;83.09;97340.42;109728;1249;69783;-66
2022/05/04 03:07:32;;;;;;;;;;;;;;;8.05;81.78;97344.83;109724;1250;60470;-66
2022/05/04 03:10:02;;;;;;;;;;;;;;;8.02;79.41;97344.34;109693;1251;60492;-67
2022/05/04 03:12:32;;;;;;;;;;;;;;;7.99;78.60;97345.23;109567;1253;72293;-66
2022/05/04 03:15:03;;;;;;;;;;;;;;;7.97;81.17;97346.58;109616;1253;66914;-69
2022/05/04 03:17:34;;;;;;;;;;;;;;;7.95;81.81;97349.13;109633;1251;68639;-66
2022/05/04 03:20:04;;;;;;;;;;;;;;;7.96;84.13;97353.08;109685;1250;60551;-68
2022/05/04 03:22:34;;;;;;;;;;;;;;;7.96;82.90;97354.31;109670;1251;60512;-66
2022/05/04 03:25:06;;;;;;;;;;;;;;;7.96;80.74;97352.70;109520;1252;72873;-67
2022/05/04 03:27:35;;;;;;;;;;;;;;;7.96;79.02;97354.59;109747;1250;67988;-69
2022/05/04 03:30:05;;;;;;;;;;;;;;;7.97;77.91;97361.86;109672;1251;69511;-67
2022/05/04 03:32:35;;;;;;;;;;;;;;;7.97;80.83;97370.51;109703;1250;60515;-68
2022/05/04 03:35:04;;;;;;;;;;;;;;;7.99;82.77;97372.14;109681;1251;60521;-66
2022/05/04 03:37:34;;;;;;;;;;;;;;;8.00;85.10;97378.13;109651;1251;72451;-68
2022/05/04 03:40:04;;;;;;;;;;;;;;;8.02;84.99;97378.88;109597;1254;67753;-67
2022/05/04 03:42:33;;;;;;;;;;;;;;;8.03;80.22;97373.80;109856;1250;69423;-69
2022/05/04 03:45:03;;;;;;;;;;;;;;;8.05;83.31;97376.29;109811;1249;60528;-68
2022/05/04 03:47:32;;;;;;;;;;;;;;;8.06;84.83;97376.36;109692;1251;60500;-67
2022/05/04 03:50:02;;;;;;;;;;;;;;;8.09;85.37;97377.21;109764;1250;72484;-68
2022/05/04 03:52:32;;;;;;;;;;;;;;;8.11;86.28;97378.65;109479;1251;67979;-66
2022/05/04 03:55:01;;;;;;;;;;;;;;;8.15;87.09;97383.77;109672;1251;70129;-67
2022/05/04 03:57:31;;;;;;;;;;;;;;;8.19;85.95;97388.25;109863;1251;60581;-67
2022/05/04 04:00:01;;;;;;;;;;;;;;;8.22;84.40;97388.20;109653;1251;60486;-68
2022/05/04 04:02:31;;;;;;;;;;;;;;;8.25;87.19;97388.34;109819;1251;72259;-69
2022/05/04 04:05:01;;;;;;;;;;;;;;;8.28;87.30;97393.58;109853;1251;68524;-68
2022/05/04 04:07:30;;;;;;;;;;;;;;;8.30;85.97;97396.40;109677;1251;69509;-67
2022/05/04 04:09:59;;;;;;;;;;;;;;;8.31;85.65;97392.84;109852;1250;60491;-68
2022/05/04 04:12:29;;;;;;;;;;;;;;;8.32;86.53;97391.74;109869;1251;60555;-66
2022/05/04 04:14:58;;;;;;;;;;;;;;;8.31;86.16;97389.70;109644;1251;71420;-67
2022/05/04 04:17:27;;;;;;;;;;;;;;;8.28;85.71;97398.42;109811;1251;68671;-65
2022/05/04 04:22:44;;;;;;;;;;;;;;;8.30;84.12;97406.27;109783;1250;60439;-67
2022/05/04 04:25:16;;;;;;;;;;;;;;;8.32;85.97;97410.86;109831;1250;60511;-68
2022/05/04 04:27:45;;;;;;;;;;;;;;;8.36;88.08;97413.73;109808;1251;71555;-67
2022/05/04 04:30:15;;;;;;;;;;;;;;;8.42;88.88;97412.33;109811;1251;67929;-68
2022/05/04 04:32:44;;;;;;;;;;;;;;;8.47;88.51;97413.20;109806;1251;68780;-68
2022/05/04 04:35:14;;;;;;;;;;;;;;;8.54;88.52;97412.59;109806;1251;60590;-67
2022/05/04 04:37:43;;;;;;;;;;;;;;;8.59;88.18;97414.36;109811;1251;60567;-67
2022/05/04 04:40:12;;;;;;;;;;;;;;;8.63;86.47;97409.57;109733;1251;72400;-67
2022/05/04 04:42:41;;;;;;;;;;;;;;;8.66;85.41;97412.85;109687;1251;67639;-67
2022/05/04 04:45:11;;;;;;;;;;;;;;;8.68;85.42;97410.79;109641;1251;69038;-68
2022/05/04 04:47:41;;;;;;;;;;;;;;;8.73;85.35;97407.89;109640;1251;60504;-68
2022/05/04 04:50:10;;;;;;;;;;;;;;;8.78;84.23;97408.23;109645;1251;60626;-67
2022/05/04 04:52:40;;;;;;;;;;;;;;;8.80;81.60;97405.17;109613;1251;71592;-67
2022/05/04 04:55:09;;;;;;;;;;;;;;;8.81;80.97;97407.02;109637;1251;68694;-67
2022/05/04 04:57:39;;;;;;;;;;;;;;;8.83;83.09;97409.83;109625;1250;68395;-66
2022/05/04 05:00:08;;;;;;;;;;;;;;;8.87;85.61;97412.13;109636;1251;60593;-67
2022/05/04 05:02:38;;;;;;;;;;;;;;;8.90;85.39;97408.66;109632;1251;60840;-67
2022/05/04 05:05:08;;;;;;;;;;;;;;;8.98;84.72;97413.58;109715;1251;71627;-67
2022/05/04 05:07:38;;;;;;;;;;;;;;;9.07;84.75;97417.61;109710;1250;67995;-67
2022/05/04 05:10:08;;;;;;;;;;;;;;;9.16;85.70;97419.25;109697;1251;69464;-66
2022/05/04 05:12:37;;;;;;;;;;;;;;;9.26;84.59;97422.47;109613;1250;60506;-66
2022/05/04 05:17:54;;;;;;;;;;;;;;;9.33;84.83;97424.07;109670;1250;72262;-67
2022/05/04 05:20:23;;;;;;;;;;;;;;;9.37;84.88;97426.53;109728;1249;68972;-66
2022/05/04 05:22:52;;;;;;;;;;;;;;;9.48;84.02;97422.86;109694;1251;67699;-66
2022/05/04 05:25:21;;;;;;;;;;;;;;;9.64;83.12;97421.40;109572;1252;60504;-66
2022/05/04 05:27:51;;;;;;;;;;;;;;;9.77;83.79;97424.73;109733;1250;60486;-67
2022/05/04 05:30:20;;;;;;;;;;;;;;;9.89;83.41;97423.86;109752;1250;72992;-68
2022/05/04 05:32:49;;;;;;;;;;;;;;;10.07;84.52;97425.73;109618;1249;67663;-65
2022/05/04 05:35:19;;;;;;;;;;;;;;;10.27;84.21;97432.88;109644;1251;68516;-69
2022/05/04 05:37:48;;;;;;;;;;;;;;;10.47;83.04;97427.45;109629;1250;60494;-66
2022/05/04 05:40:18;;;;;;;;;;;;;;;10.64;82.24;97428.29;109741;1251;60517;-68
2022/05/04 05:42:47;;;;;;;;;;;;;;;10.79;81.73;97430.52;109842;1250;71724;-69
2022/05/04 05:45:17;;;;;;;;;;;;;;;10.99;80.86;97425.20;109819;1250;68652;-68
2022/05/04 05:47:46;;;;;;;;;;;;;;;11.13;79.51;97430.40;109636;1250;68458;-65
2022/05/04 05:50:17;;;;;;;;;;;;;;;11.12;79.21;97432.56;109825;1249;60541;-67
2022/05/04 05:52:46;;;;;;;;;;;;;;;11.00;79.46;97432.79;109638;1251;60511;-65
2022/05/04 05:55:16;;;;;;;;;;;;;;;10.90;79.56;97435.45;109768;1250;72422;-66
2022/05/04 05:57:45;;;;;;;;;;;;;;;10.91;80.09;97436.27;109591;1251;68606;-67
2022/05/04 06:00:15;;;;;;;;;;;;;;;11.28;79.77;97433.36;109596;1249;68950;-68
2022/05/04 06:02:45;;;;;;;;;;;;;;;11.56;77.77;97439.55;109698;1250;60582;-69
2022/05/04 06:05:14;;;;;;;;;;;;;;;11.92;77.49;97441.52;109623;1251;60547;-65
2022/05/04 06:07:43;;;;;;;;;;;;;;;12.35;76.40;97440.74;109794;1250;71580;-68
2022/05/04 06:10:12;;;;;;;;;;;;;;;12.83;74.34;97441.30;109624;1251;68577;-66
2022/05/04 06:12:41;;;;;;;;;;;;;;;13.15;72.59;97433.77;109786;1250;69493;-67
2022/05/04 06:15:12;;;;;;;;;;;;;;;13.62;72.05;97438.80;109755;1249;60688;-68
2022/05/04 06:17:42;;;;;;;;;;;;;;;13.84;70.77;97432.05;109766;1249;60428;-69
2022/05/04 06:20:11;;;;;;;;;;;;;;;14.17;70.29;97435.25;109792;1250;72423;-68
2022/05/04 06:22:39;;;;;;;;;;;;;;;14.17;67.75;97432.27;109841;1250;68113;-68
2022/05/04 06:25:09;;;;;;;;;;;;;;;14.38;66.93;97433.27;109795;1251;68691;-67
2022/05/04 06:27:38;;;;;;;;;;;;;;;14.81;66.88;97433.33;109850;1250;60808;-69
2022/05/04 06:35:43;;;;;;;;;;;;;;;15.08;64.42;97438.84;109759;1250;67954;-70
2022/05/04 06:38:12;;;;;;;;;;;;;;;15.09;63.10;97438.34;109543;1251;69596;-66
2022/05/04 06:40:42;;;;;;;;;;;;;;;15.35;64.11;97440.92;109787;1250;61035;-67
2022/05/04 06:43:11;;;;;;;;;;;;;;;15.90;63.45;97440.45;109756;1250;60455;-69
2022/05/04 06:45:41;;;;;;;;;;;;;;;16.45;61.81;97447.18;109700;1251;72407;-68
2022/05/04 06:48:10;;;;;;;;;;;;;;;16.94;60.29;97445.95;109675;1250;68055;-68
2022/05/04 06:50:39;;;;;;;;;;;;;;;17.25;58.22;97444.99;109664;1250;69598;-68
2022/05/04 06:53:08;;;;;;;;;;;;;;;17.37;56.24;97446.09;109700;1250;60488;-68
2022/05/04 06:55:38;;;;;;;;;;;;;;;17.41;54.37;97447.25;109750;1250;60556;-70
2022/05/04 06:58:07;;;;;;;;;;;;;;;17.44;55.32;97450.14;109712;1250;72342;-67
2022/05/04 07:00:36;;;;;;;;;;;;;;;17.79;53.83;97451.70;109548;1252;67851;-68
2022/05/04 07:03:05;;;;;;;;;;;;;;;17.83;52.21;97447.98;109695;1250;68778;-67
2022/05/04 07:05:35;;;;;;;;;;;;;;;17.90;52.21;97451.10;109600;1252;60595;-66
2022/05/04 07:08:04;;;;;;;;;;;;;;;17.55;49.34;97450.20;109720;1250;60504;-68
2022/05/04 07:10:34;;;;;;;;;;;;;;;17.43;50.08;97446.46;109705;1249;72339;-67
2022/05/04 07:13:03;;;;;;;;;;;;;;;17.61;50.99;97451.69;109869;1250;68678;-68
2022/05/04 07:15:32;;;;;;;;;;;;;;;17.54;50.44;97456.38;109820;1249;69478;-68
2022/05/04 07:18:01;;;;;;;;;;;;;;;17.06;47.80;97462.66;109768;1251;60486;-67
2022/05/04 07:20:30;;;;;;;;;;;;;;;17.10;47.90;97463.36;109599;1252;60535;-67
2022/05/04 07:22:59;;;;;;;;;;;;;;;17.34;48.50;97462.41;109669;1250;71634;-67
2022/05/04 07:25:28;;;;;;;;;;;;;;;17.61;49.21;97464.73;109739;1250;68681;-65
2022/05/04 07:27:59;;;;;;;;;;;;;;;18.33;49.88;97468.55;109404;1254;68691;-67
2022/05/04 07:30:28;;;;;;;;;;;;;;;19.10;47.58;97460.83;109726;1250;60546;-67
2022/05/04 07:32:56;;;;;;;;;;;;;;;19.31;46.17;97459.95;109760;1250;60475;-67
2022/05/04 07:35:25;;;;;;;;;;;;;;;19.66;44.50;97460.50;109573;1250;72447;-69
2022/05/04 07:37:55;;;;;;;;;;;;;;;19.60;43.72;97460.45;109697;1251;67814;-65
2022/05/04 07:43:10;;;;;;;;;;;;;;;19.56;42.22;97464.05;109903;1250;60566;-66
2022/05/04 07:45:39;;;;;;;;;;;;;;;19.74;42.91;97467.48;109817;1250;60883;-68
2022/05/04 07:48:08;;;;;;;;;;;;;;;19.79;44.09;97467.15;109863;1250;73033;-69
2022/05/04 07:50:37;;;;;;;;;;;;;;;19.76;43.52;97464.30;109763;1250;69434;-68
2022/05/04 07:53:06;;;;;;;;;;;;;;;19.64;43.03;97464.01;109871;1250;68659;-68
2022/05/04 07:55:36;;;;;;;;;;;;;;;19.96;43.25;97465.30;109700;1250;60622;-68
2022/05/04 07:58:06;;;;;;;;;;;;;;;20.20;41.85;97467.26;109816;1250;60555;-66
2022/05/04 08:06:12;;;;;;;;;;;;;;;19.51;43.01;97465.46;109619;1250;69521;-68
2022/05/04 08:08:41;;;;;;;;;;;;;;;19.52;43.51;97465.41;109798;1250;60515;-67
2022/05/04 08:11:11;;;;;;;;;;;;;;;19.79;43.11;97465.45;109675;1250;60490;-67
2022/05/04 08:13:40;;;;;;;;;;;;;;;20.37;41.18;97463.36;110034;1250;72404;-67
2022/05/04 08:16:11;;;;;;;;;;;;;;;20.37;40.90;97460.90;109865;1250;67803;-67
2022/05/04 08:18:42;;;;;;;;;;;;;;;20.41;40.73;97466.63;109841;1250;68638;-67
2022/05/04 08:21:11;;;;;;;;;;;;;;;20.62;40.28;97462.38;109601;1250;60500;-67
2022/05/04 08:23:40;;;;;;;;;;;;;;;20.91;39.91;97461.75;109731;1249;60509;-67
2022/05/04 08:26:11;;;;;;;;;;;;;;;20.95;40.29;97457.91;109869;1250;72390;-67
2022/05/04 08:28:39;;;;;;;;;;;;;;;21.07;39.07;97459.54;109985;1250;67839;-68
2022/05/04 08:31:09;;;;;;;;;;;;;;;20.95;38.06;97462.39;109895;1249;69107;-67
2022/05/04 08:33:38;;;;;;;;;;;;;;;20.48;39.63;97459.02;109924;1250;60577;-68
2022/05/04 08:36:07;;;;;;;;;;;;;;;20.10;41.12;97462.38;109873;1249;60530;-67
2022/05/04 08:38:36;;;;;;;;;;;;;;;20.07;41.19;97463.40;109903;1250;71699;-67
2022/05/04 08:41:06;;;;;;;;;;;;;;;19.97;41.59;97455.65;109908;1250;67845;-67
2022/05/04 08:43:36;;;;;;;;;;;;;;;20.19;40.27;97455.66;109825;1250;69520;-68
2022/05/04 08:46:05;;;;;;;;;;;;;;;20.21;40.14;97452.42;109637;1250;60612;-68
2022/05/04 08:48:35;;;;;;;;;;;;;;;20.26;40.12;97453.34;109747;1250;60508;-69
2022/05/04 08:51:05;;;;;;;;;;;;;;;20.86;40.10;97452.70;109801;1250;72376;-67
2022/05/04 08:53:35;;;;;;;;;;;;;;;21.25;39.70;97448.29;109641;1250;67000;-67
2022/05/04 08:56:05;;;;;;;;;;;;;;;21.91;39.27;97448.55;109734;1250;69550;-67
2022/05/04 08:58:37;;;;;;;;;;;;;;;22.50;36.61;97456.69;109766;1250;60902;-66
2022/05/04 09:54:16;;;;;;;8.60;7.70;;;;;;;21.75;35.12;97412.66;106503;1286;611874;-66
2022/05/04 09:57:02;;;;;;;10.00;9.00;;;;;;;21.09;36.69;97408.80;108651;1263;328886;-67
2022/05/04 09:59:36;;;;;;;8.00;7.30;;;;;;;21.44;35.98;97400.99;108988;1263;57641;-67
2022/05/04 10:02:09;;;;;;;8.30;7.60;;;;;;;21.47;35.53;97398.31;109262;1260;69177;-67
2022/05/04 10:04:39;;;;;;;7.20;6.60;;;;;;;21.53;34.90;97393.34;109178;1260;68646;-67
2022/05/04 10:07:11;;;;;;;7.90;7.10;;;;;;;22.06;34.58;97389.20;109772;1254;69298;-66
2022/05/04 10:09:41;;;;;;;7.50;6.70;;;;;;;22.14;34.88;97388.60;109749;1252;57556;-68
2022/05/04 10:12:10;;;;;;;7.90;7.20;;;;;;;21.90;35.59;97379.23;109721;1253;57560;-68
2022/05/04 10:14:39;;;;;;;;;;;;;;;21.33;36.07;97376.26;109793;1253;68448;-66
2022/05/04 10:17:18;;;;;;;8.70;6.70;;;;;;;21.12;36.51;97368.80;109688;1253;68686;-68
2022/05/04 10:20:03;;;;;;;6.80;5.80;;;;;;;21.38;37.31;97373.95;109676;1253;70099;-66
2022/05/04 10:22:42;;;;;;;7.50;6.20;;;;;;;21.82;35.85;97371.35;109692;1253;58560;-66
2022/05/04 10:25:13;;;;;;;7.30;5.90;;;;;;;21.79;33.69;97367.05;109657;1253;58057;-68
2022/05/04 10:27:46;;;;;;;6.70;6.10;;;;;;;21.86;34.85;97366.55;109683;1254;68409;-65
2022/05/04 10:30:31;;;;;;;6.40;5.70;;;;;;;22.19;33.57;97364.73;109664;1253;68144;-67
2022/05/04 10:33:05;;;;;;;7.00;6.20;;;;;;;22.83;33.93;97353.13;109689;1253;68480;-67
2022/05/04 10:35:41;;;;;;;6.30;5.80;;;;;;;23.11;33.51;97350.05;109639;1254;58066;-66
2022/05/04 10:38:25;;;;;;;5.90;5.30;;;;;;;23.11;33.22;97345.09;109720;1254;58031;-68
2022/05/04 10:40:56;;;;;;;6.60;5.10;;;;;;;22.87;32.55;97345.01;109686;1253;70125;-67
2022/05/04 10:43:50;;;;;;;6.80;5.80;;;;;;;22.45;31.34;97345.73;109701;1253;69056;-66
2022/05/04 10:46:21;;;;;;;7.20;5.50;;;;;;;23.04;30.57;97338.34;109702;1253;68682;-67
2022/05/04 10:48:54;;;;;;;5.70;5.20;;;;;;;23.77;31.20;97341.35;109713;1254;58151;-67
2022/05/04 10:51:30;;;;;;;6.00;5.50;;;;;;;24.68;30.09;97335.66;109714;1253;57989;-66
2022/05/04 10:54:04;;;;;;;4.90;4.40;;;;;;;25.37;29.47;97337.90;109679;1253;70407;-67
2022/05/04 10:56:44;;;;;;;5.40;4.90;;;;;;;25.35;28.65;97339.38;109698;1253;68729;-67
2022/05/04 10:59:26;;;;;;;5.30;4.40;;;;;;;24.54;29.36;97334.46;109732;1253;68662;-67
2022/05/04 11:01:57;;;;;;;5.20;4.80;;;;;;;24.38;29.18;97334.85;109709;1252;58104;-67
2022/05/04 11:04:26;;;;;;;4.80;4.30;;;;;;;24.30;29.87;97330.20;109765;1253;58130;-67
2022/05/04 11:07:03;;;;;;;;;;;;;;;24.36;30.45;97335.02;109725;1252;68990;-67
2022/05/04 11:09:38;;;;;;;6.90;5.30;;;;;;;24.44;29.42;97328.61;109656;1253;67795;-66
2022/05/04 11:12:10;;;;;;;4.90;4.40;;;;;;;24.60;29.30;97323.30;109746;1253;70023;-68
2022/05/04 11:14:40;;;;;;;5.40;4.50;;;;;;;25.32;28.64;97319.14;109769;1254;58504;-69
2022/05/04 11:17:14;;;;;;;5.30;4.10;;;;;;;25.93;27.48;97319.79;109536;1253;58149;-67
2022/05/04 11:19:47;;;;;;;6.60;5.60;;;;;;;26.39;26.44;97319.16;109787;1252;69124;-70
2022/05/04 11:22:18;;;;;;;4.90;4.50;;;;;;;26.17;25.70;97319.38;109682;1253;68592;-68
2022/05/04 11:25:09;;;;;;;4.70;4.20;;;;;;;26.49;26.82;97318.87;109598;1253;68717;-65
2022/05/04 11:27:38;;;;;;;8.70;4.60;;;;;;;26.98;26.72;97321.59;109745;1253;58062;-67
2022/05/04 11:30:07;;;;;;;;;;;;;;;27.34;24.99;97319.41;109658;1253;58446;-67
2022/05/04 11:32:39;;;;;;;5.70;5.00;;;;;;;27.47;25.01;97318.10;109719;1253;69715;-66
2022/05/04 11:35:14;;;;;;;4.80;4.00;;;;;;;26.92;25.35;97317.50;109710;1253;67444;-67
2022/05/04 11:37:43;;;;;;;5.70;5.10;;;;;;;25.99;24.03;97322.38;109698;1253;69425;-67
2022/05/04 11:40:17;;;;;;;5.70;5.10;;;;;;;25.28;24.70;97316.99;109682;1253;58093;-67
2022/05/04 11:42:48;;;;;;;5.00;4.60;;;;;;;25.21;25.75;97317.54;109782;1253;58067;-68
2022/05/04 11:45:17;;;;;;;4.90;4.40;;;;;;;25.54;25.04;97316.20;109644;1253;69008;-67
2022/05/04 11:47:46;;;;;;;4.70;4.20;;;;;;;25.59;24.82;97314.17;109734;1253;68417;-66
2022/05/04 11:50:16;;;;;;;5.00;4.20;;;;;;;25.13;25.67;97310.05;109710;1253;69231;-68
2022/05/04 11:52:45;;;;;;;5.10;4.60;;;;;;;24.55;26.95;97313.38;109941;1250;58133;-66
2022/05/04 11:55:14;;;;;;;4.60;4.10;;;;;;;23.86;28.77;97324.20;109918;1250;58052;-69
2022/05/04 11:57:45;;;;;;;4.40;3.70;;;;;;;23.09;30.36;97328.59;109734;1251;68926;-68
2022/05/04 12:00:17;;;;;;;5.10;4.40;;;;;;;22.07;33.36;97347.06;109923;1251;67825;-67
2022/05/04 12:02:48;;;;;;;11.60;5.70;;;;;;;21.18;38.10;97361.96;109734;1250;69224;-65
2022/05/04 12:05:18;;;;;;;8.00;5.50;;;;;;;19.92;42.94;97367.92;109776;1250;58480;-68
2022/05/04 12:07:48;;;;;;;7.00;4.80;;;;;;;18.60;48.25;97368.79;109908;1250;58388;-68
2022/05/04 12:10:17;;;;;;;8.20;5.80;;;;;;;17.71;49.17;97369.15;109893;1250;70053;-67
2022/05/04 12:12:46;;;;;;;9.00;7.50;;;;;;;16.87;52.94;97366.99;109912;1250;68696;-67
2022/05/04 12:15:16;;;;;;;7.00;6.30;;;;;;;16.36;56.75;97371.70;109819;1251;68868;-66
2022/05/04 12:17:46;;;;;;;;;;;;;;;16.25;53.49;97378.40;110164;1249;58144;-67
2022/05/04 12:20:18;;;;;;;;;;;;;;;15.79;56.52;97384.72;110178;1249;58054;-67
2022/05/04 12:22:48;;;;;;;7.30;6.70;;;;;;;15.41;57.69;97383.80;110125;1248;69174;-69
2022/05/04 12:25:22;;;;;;;7.30;6.10;;;;;;;15.20;60.44;97389.27;110149;1249;68566;-67
2022/05/04 12:27:54;;;;;;;9.10;7.80;;;;;;;14.89;63.23;97397.39;110187;1250;67856;-67
2022/05/04 12:33:13;;;;;;;8.10;7.20;;;;;;;14.50;63.97;97411.35;110187;1250;58082;-67
2022/05/04 12:35:45;;;;;;;7.50;6.70;;;;;;;14.35;64.25;97420.96;110225;1248;68994;-66
2022/05/04 12:38:19;;;;;;;8.70;7.20;;;;;;;14.21;61.65;97426.69;110205;1250;68199;-67
2022/05/04 12:40:49;;;;;;;9.00;7.90;;;;;;;14.11;62.49;97434.63;110125;1249;69440;-66
2022/05/04 12:43:24;;;;;;;9.70;7.60;;;;;;;14.03;61.38;97438.22;110160;1248;58052;-67
2022/05/04 12:45:56;;;;;;;9.20;7.10;;;;;;;13.99;60.88;97441.55;110188;1249;58061;-68
2022/05/04 12:48:31;;;;;;;8.80;6.70;;;;;;;13.99;60.92;97440.02;110094;1247;70025;-66
2022/05/04 12:51:00;;;;;;;7.40;6.60;;;;;;;13.88;61.01;97444.84;110074;1250;68603;-66
2022/05/04 12:53:29;;;;;;;7.30;5.70;;;;;;;13.80;61.51;97448.98;110151;1249;69571;-67
2022/05/04 12:58:55;;;;;;;6.60;6.00;;;;;;;13.69;61.43;97447.83;110157;1249;58062;-67
2022/05/04 13:01:26;;;;;;;8.00;6.80;;;;;;;13.70;60.84;97443.85;110188;1250;69626;-68
2022/05/04 13:03:54;;;;;;;9.20;6.40;;;;;;;13.66;61.14;97438.27;110178;1250;67831;-67
2022/05/04 13:06:25;;;;;;;8.50;6.50;;;;;;;13.58;61.58;97434.58;110143;1249;68656;-66
2022/05/04 13:08:54;;;;;;;6.80;5.90;;;;;;;13.49;61.97;97433.92;110223;1250;58060;-68
2022/05/04 13:11:25;;;;;;;6.90;5.60;;;;;;;13.49;61.78;97429.86;110155;1250;58192;-68
2022/05/04 13:13:54;;;;;;;8.10;5.30;;;;;;;13.54;62.92;97429.54;110189;1248;69235;-69
2022/05/04 13:16:33;;;;;;;7.10;6.30;;;;;;;13.57;62.94;97427.70;110013;1249;67388;-67
2022/05/04 13:19:06;;;;;;;7.30;5.50;;;;;;;13.65;61.77;97429.55;110046;1250;69669;-68
2022/05/04 13:21:35;;;;;;;7.40;6.10;;;;;;;13.79;62.40;97431.03;110130;1249;58038;-68
2022/05/04 13:24:04;;;;;;;6.40;5.10;;;;;;;13.97;61.52;97433.02;110097;1249;58190;-68
2022/05/04 13:26:33;;;;;;;9.70;7.20;;;;;;;14.13;61.75;97436.83;110222;1250;69036;-68
2022/05/04 13:29:02;;;;;;;8.00;5.60;;;;;;;14.29;61.59;97437.36;109948;1249;68548;-67
2022/05/04 13:31:31;;;;;;;6.90;5.90;;;;;;;14.42;60.31;97433.94;110163;1250;69454;-67
2022/05/04 13:34:01;;;;;;;6.30;5.40;;;;;;;14.41;60.35;97435.16;110142;1250;58134;-67
2022/05/04 13:36:29;;;;;;;6.30;5.60;;;;;;;14.42;60.24;97436.28;110060;1250;58110;-66
2022/05/04 13:38:58;;;;;;;6.70;5.70;;;;;;;14.48;60.10;97428.20;110148;1248;69160;-66
2022/05/04 13:41:30;;;;;;;5.90;5.30;;;;;;;14.68;60.16;97423.84;110166;1249;67885;-67
2022/05/04 13:43:59;;;;;;;7.10;6.30;;;;;;;15.04;58.97;97424.92;110057;1250;69987;-68
2022/05/04 13:46:28;;;;;;;6.50;5.90;;;;;;;15.47;59.93;97421.42;110161;1250;58146;-64
2022/05/04 13:48:57;;;;;;;6.00;5.20;;;;;;;15.86;58.35;97420.86;110008;1249;58071;-66
2022/05/04 13:54:14;;;;;;;5.70;5.00;;;;;;;16.55;55.03;97409.42;110030;1250;67971;-66
2022/05/04 13:56:43;;;;;;;5.70;5.00;;;;;;;16.57;53.17;97408.84;110137;1249;69268;-66
2022/05/04 13:59:12;;;;;;;6.10;4.50;;;;;;;16.45;53.07;97409.71;110143;1249;58124;-66
2022/05/04 14:01:42;;;;;;;6.40;4.70;;;;;;;16.29;52.98;97413.98;109961;1250;58066;-66